sensor_id;sensor_type;location;lat;lon;timestamp;temperature;humidity
34877;DHT22;21086;44.780;17.194;2024-01-07T00:00:19;11.30;99.90
34877;DHT22;21086;44.780;17.194;2024-01-07T00:02:46;11.30;99.90
34877;DHT22;21086;44.780;17.194;2024-01-07T00:05:13;11.20;99.90
34877;DHT22;21086;44.780;17.194;2024-01-07T00:07:40;11.20;99.90
34877;DHT22;21086;44.780;17.194;2024-01-07T00:10:07;11.10;99.90
34877;DHT22;21086;44.780;17.194;2024-01-07T00:12:35;11.10;99.90
34877;DHT22;21086;44.780;17.194;2024-01-07T00:15:03;11.10;99.90
34877;DHT22;21086;44.780;17.194;2024-01-07T00:17:30;11.10;99.90
34877;DHT22;21086;44.780;17.194;2024-01-07T00:19:57;11.00;99.90
34877;DHT22;21086;44.780;17.194;2024-01-07T00:22:24;11.10;99.90
34877;DHT22;21086;44.780;17.194;2024-01-07T00:24:51;11.10;99.90
34877;DHT22;21086;44.780;17.194;2024-01-07T00:27:18;11.00;99.90
34877;DHT22;21086;44.780;17.194;2024-01-07T00:29:45;11.10;99.90
34877;DHT22;21086;44.780;17.194;2024-01-07T00:32:12;11.10;99.90
34877;DHT22;21086;44.780;17.194;2024-01-07T00:34:40;11.10;99.90
34877;DHT22;21086;44.780;17.194;2024-01-07T00:37:07;11.00;99.90
34877;DHT22;21086;44.780;17.194;2024-01-07T00:39:34;11.10;99.90
34877;DHT22;21086;44.780;17.194;2024-01-07T00:42:01;11.10;99.90
34877;DHT22;21086;44.780;17.194;2024-01-07T00:44:28;11.10;99.90
34877;DHT22;21086;44.780;17.194;2024-01-07T00:46:55;11.10;99.90
34877;DHT22;21086;44.780;17.194;2024-01-07T00:49:22;11.10;99.90
34877;DHT22;21086;44.780;17.194;2024-01-07T00:51:49;11.10;99.90
34877;DHT22;21086;44.780;17.194;2024-01-07T00:54:16;11.20;99.90
34877;DHT22;21086;44.780;17.194;2024-01-07T00:56:45;11.20;99.90
34877;DHT22;21086;44.780;17.194;2024-01-07T00:59:12;11.20;99.90
34877;DHT22;21086;44.780;17.194;2024-01-07T01:01:39;11.10;99.90
34877;DHT22;21086;44.780;17.194;2024-01-07T01:04:06;11.20;99.90
34877;DHT22;21086;44.780;17.194;2024-01-07T01:06:33;11.20;99.90
34877;DHT22;21086;44.780;17.194;2024-01-07T01:09:00;11.10;99.90
34877;DHT22;21086;44.780;17.194;2024-01-07T01:11:27;11.20;99.90
34877;DHT22;21086;44.780;17.194;2024-01-07T01:13:53;11.20;99.90
34877;DHT22;21086;44.780;17.194;2024-01-07T01:16:20;11.10;99.90
34877;DHT22;21086;44.780;17.194;2024-01-07T01:18:51;11.10;99.90
34877;DHT22;21086;44.780;17.194;2024-01-07T01:21:18;11.10;99.90
34877;DHT22;21086;44.780;17.194;2024-01-07T01:23:46;11.10;99.90
34877;DHT22;21086;44.780;17.194;2024-01-07T01:26:13;11.10;99.90
34877;DHT22;21086;44.780;17.194;2024-01-07T01:28:40;11.10;99.90
34877;DHT22;21086;44.780;17.194;2024-01-07T01:31:07;11.20;99.90
34877;DHT22;21086;44.780;17.194;2024-01-07T01:33:34;11.10;99.90
34877;DHT22;21086;44.780;17.194;2024-01-07T01:36:04;11.10;99.90
34877;DHT22;21086;44.780;17.194;2024-01-07T01:38:32;11.10;99.90
34877;DHT22;21086;44.780;17.194;2024-01-07T01:40:59;11.10;99.90
34877;DHT22;21086;44.780;17.194;2024-01-07T01:43:27;11.10;99.90
34877;DHT22;21086;44.780;17.194;2024-01-07T01:45:55;11.10;99.90
34877;DHT22;21086;44.780;17.194;2024-01-07T01:48:23;11.10;99.90
34877;DHT22;21086;44.780;17.194;2024-01-07T01:50:51;11.10;99.90
34877;DHT22;21086;44.780;17.194;2024-01-07T01:53:20;11.10;99.90
34877;DHT22;21086;44.780;17.194;2024-01-07T01:55:48;11.10;99.90
34877;DHT22;21086;44.780;17.194;2024-01-07T01:58:17;11.10;99.90
34877;DHT22;21086;44.780;17.194;2024-01-07T02:00:45;11.00;99.90
34877;DHT22;21086;44.780;17.194;2024-01-07T02:03:13;11.00;99.90
34877;DHT22;21086;44.780;17.194;2024-01-07T02:05:40;11.00;99.90
34877;DHT22;21086;44.780;17.194;2024-01-07T02:08:07;11.00;99.90
34877;DHT22;21086;44.780;17.194;2024-01-07T02:10:35;11.10;99.90
34877;DHT22;21086;44.780;17.194;2024-01-07T02:13:06;11.10;99.90
34877;DHT22;21086;44.780;17.194;2024-01-07T02:15:33;11.10;99.90
34877;DHT22;21086;44.780;17.194;2024-01-07T02:18:01;11.10;99.90
34877;DHT22;21086;44.780;17.194;2024-01-07T02:20:28;11.10;99.90
34877;DHT22;21086;44.780;17.194;2024-01-07T02:22:55;11.00;99.90
34877;DHT22;21086;44.780;17.194;2024-01-07T02:25:25;10.90;99.90
34877;DHT22;21086;44.780;17.194;2024-01-07T02:27:53;10.60;99.90
34877;DHT22;21086;44.780;17.194;2024-01-07T02:30:20;10.30;99.90
34877;DHT22;21086;44.780;17.194;2024-01-07T02:32:47;9.80;99.90
34877;DHT22;21086;44.780;17.194;2024-01-07T02:35:14;9.50;99.90
34877;DHT22;21086;44.780;17.194;2024-01-07T02:37:41;9.30;99.90
34877;DHT22;21086;44.780;17.194;2024-01-07T02:40:09;9.20;99.90
34877;DHT22;21086;44.780;17.194;2024-01-07T02:42:36;9.10;99.90
34877;DHT22;21086;44.780;17.194;2024-01-07T02:45:03;9.10;99.90
34877;DHT22;21086;44.780;17.194;2024-01-07T02:47:30;9.10;99.90
34877;DHT22;21086;44.780;17.194;2024-01-07T02:49:57;9.00;99.90
34877;DHT22;21086;44.780;17.194;2024-01-07T02:52:24;8.90;99.90
34877;DHT22;21086;44.780;17.194;2024-01-07T02:54:51;8.90;99.90
34877;DHT22;21086;44.780;17.194;2024-01-07T02:59:46;8.70;99.90
34877;DHT22;21086;44.780;17.194;2024-01-07T03:04:48;8.70;99.90
34877;DHT22;21086;44.780;17.194;2024-01-07T03:07:15;8.50;99.90
34877;DHT22;21086;44.780;17.194;2024-01-07T03:09:42;8.70;99.90
34877;DHT22;21086;44.780;17.194;2024-01-07T03:12:11;8.60;99.90
34877;DHT22;21086;44.780;17.194;2024-01-07T03:14:40;8.50;99.90
34877;DHT22;21086;44.780;17.194;2024-01-07T03:17:08;8.50;99.90
34877;DHT22;21086;44.780;17.194;2024-01-07T03:19:37;8.40;99.90
34877;DHT22;21086;44.780;17.194;2024-01-07T03:22:04;8.60;99.90
34877;DHT22;21086;44.780;17.194;2024-01-07T03:24:34;8.40;99.90
34877;DHT22;21086;44.780;17.194;2024-01-07T03:27:01;8.40;99.90
34877;DHT22;21086;44.780;17.194;2024-01-07T03:29:28;8.50;99.90
34877;DHT22;21086;44.780;17.194;2024-01-07T03:31:55;8.50;99.90
34877;DHT22;21086;44.780;17.194;2024-01-07T03:34:22;8.70;99.90
34877;DHT22;21086;44.780;17.194;2024-01-07T03:36:49;8.60;99.90
34877;DHT22;21086;44.780;17.194;2024-01-07T03:39:16;8.40;99.90
34877;DHT22;21086;44.780;17.194;2024-01-07T03:41:43;8.20;99.90
34877;DHT22;21086;44.780;17.194;2024-01-07T03:44:10;8.20;99.90
34877;DHT22;21086;44.780;17.194;2024-01-07T03:46:37;8.10;99.90
34877;DHT22;21086;44.780;17.194;2024-01-07T03:49:04;8.00;99.90
34877;DHT22;21086;44.780;17.194;2024-01-07T03:51:31;8.10;99.90
34877;DHT22;21086;44.780;17.194;2024-01-07T03:53:58;8.10;99.90
34877;DHT22;21086;44.780;17.194;2024-01-07T03:56:25;8.00;99.90
34877;DHT22;21086;44.780;17.194;2024-01-07T03:58:52;8.10;99.90
34877;DHT22;21086;44.780;17.194;2024-01-07T04:01:19;8.00;99.90
34877;DHT22;21086;44.780;17.194;2024-01-07T04:03:47;8.00;99.90
34877;DHT22;21086;44.780;17.194;2024-01-07T04:06:14;8.00;99.90
34877;DHT22;21086;44.780;17.194;2024-01-07T04:08:41;8.10;99.90
34877;DHT22;21086;44.780;17.194;2024-01-07T04:11:08;8.20;99.90
34877;DHT22;21086;44.780;17.194;2024-01-07T04:13:35;8.10;99.90
34877;DHT22;21086;44.780;17.194;2024-01-07T04:16:03;8.10;99.90
34877;DHT22;21086;44.780;17.194;2024-01-07T04:21:26;8.20;99.90
34877;DHT22;21086;44.780;17.194;2024-01-07T04:23:53;8.10;99.90
34877;DHT22;21086;44.780;17.194;2024-01-07T04:29:06;7.90;99.90
34877;DHT22;21086;44.780;17.194;2024-01-07T04:31:33;7.90;99.90
34877;DHT22;21086;44.780;17.194;2024-01-07T04:34:00;7.80;99.90
34877;DHT22;21086;44.780;17.194;2024-01-07T04:36:27;7.80;99.90
34877;DHT22;21086;44.780;17.194;2024-01-07T04:38:54;7.90;99.90
34877;DHT22;21086;44.780;17.194;2024-01-07T04:41:23;8.00;99.90
34877;DHT22;21086;44.780;17.194;2024-01-07T04:43:50;8.00;99.90
34877;DHT22;21086;44.780;17.194;2024-01-07T04:46:17;8.00;99.90
34877;DHT22;21086;44.780;17.194;2024-01-07T04:48:44;8.00;99.90
34877;DHT22;21086;44.780;17.194;2024-01-07T04:51:11;7.90;99.90
34877;DHT22;21086;44.780;17.194;2024-01-07T04:53:38;7.90;99.90
34877;DHT22;21086;44.780;17.194;2024-01-07T04:56:06;8.00;99.90
34877;DHT22;21086;44.780;17.194;2024-01-07T04:58:33;5.50;99.90
34877;DHT22;21086;44.780;17.194;2024-01-07T05:01:00;8.20;99.90
34877;DHT22;21086;44.780;17.194;2024-01-07T05:03:27;8.30;99.90
34877;DHT22;21086;44.780;17.194;2024-01-07T05:14:00;8.50;99.90
34877;DHT22;21086;44.780;17.194;2024-01-07T05:16:27;8.00;99.90
34877;DHT22;21086;44.780;17.194;2024-01-07T05:18:55;9.00;99.90
34877;DHT22;21086;44.780;17.194;2024-01-07T05:21:22;8.60;99.90
34877;DHT22;21086;44.780;17.194;2024-01-07T05:23:49;8.60;99.90
34877;DHT22;21086;44.780;17.194;2024-01-07T05:28:51;8.70;99.90
34877;DHT22;21086;44.780;17.194;2024-01-07T05:31:18;8.60;99.90
34877;DHT22;21086;44.780;17.194;2024-01-07T05:33:46;8.60;99.90
34877;DHT22;21086;44.780;17.194;2024-01-07T05:36:13;8.50;99.90
34877;DHT22;21086;44.780;17.194;2024-01-07T05:38:44;8.30;99.90
34877;DHT22;21086;44.780;17.194;2024-01-07T05:41:11;8.20;99.90
34877;DHT22;21086;44.780;17.194;2024-01-07T05:43:38;8.20;99.90
34877;DHT22;21086;44.780;17.194;2024-01-07T05:46:05;7.90;99.90
34877;DHT22;21086;44.780;17.194;2024-01-07T05:51:07;8.00;99.90
34877;DHT22;21086;44.780;17.194;2024-01-07T05:53:35;7.90;99.90
34877;DHT22;21086;44.780;17.194;2024-01-07T05:56:02;7.80;99.90
34877;DHT22;21086;44.780;17.194;2024-01-07T05:58:30;7.80;99.90
34877;DHT22;21086;44.780;17.194;2024-01-07T06:00:57;7.80;99.90
34877;DHT22;21086;44.780;17.194;2024-01-07T06:03:24;7.90;99.90
34877;DHT22;21086;44.780;17.194;2024-01-07T06:05:51;8.10;99.90
34877;DHT22;21086;44.780;17.194;2024-01-07T06:08:18;8.00;99.90
34877;DHT22;21086;44.780;17.194;2024-01-07T06:13:30;8.10;99.90
34877;DHT22;21086;44.780;17.194;2024-01-07T06:15:57;8.30;99.90
34877;DHT22;21086;44.780;17.194;2024-01-07T06:18:24;8.40;99.90
34877;DHT22;21086;44.780;17.194;2024-01-07T06:20:52;5.70;99.90
34877;DHT22;21086;44.780;17.194;2024-01-07T06:23:19;8.30;99.90
34877;DHT22;21086;44.780;17.194;2024-01-07T06:25:46;8.30;99.90
34877;DHT22;21086;44.780;17.194;2024-01-07T06:28:13;8.10;99.90
34877;DHT22;21086;44.780;17.194;2024-01-07T06:30:40;8.00;99.90
34877;DHT22;21086;44.780;17.194;2024-01-07T06:33:07;8.00;99.90
34877;DHT22;21086;44.780;17.194;2024-01-07T06:35:34;7.80;99.90
34877;DHT22;21086;44.780;17.194;2024-01-07T06:38:01;7.70;99.90
34877;DHT22;21086;44.780;17.194;2024-01-07T06:40:28;7.70;99.90
34877;DHT22;21086;44.780;17.194;2024-01-07T06:42:55;7.70;99.90
34877;DHT22;21086;44.780;17.194;2024-01-07T06:45:23;7.60;99.90
34877;DHT22;21086;44.780;17.194;2024-01-07T06:47:50;7.70;99.90
34877;DHT22;21086;44.780;17.194;2024-01-07T06:50:17;7.60;99.90
34877;DHT22;21086;44.780;17.194;2024-01-07T06:52:46;7.50;99.90
34877;DHT22;21086;44.780;17.194;2024-01-07T06:55:13;7.60;99.90
34877;DHT22;21086;44.780;17.194;2024-01-07T06:57:40;7.50;99.90
34877;DHT22;21086;44.780;17.194;2024-01-07T07:00:08;7.50;99.90
34877;DHT22;21086;44.780;17.194;2024-01-07T07:02:36;7.60;99.90
34877;DHT22;21086;44.780;17.194;2024-01-07T07:05:03;7.70;99.90
34877;DHT22;21086;44.780;17.194;2024-01-07T07:07:30;7.80;99.90
34877;DHT22;21086;44.780;17.194;2024-01-07T07:09:57;7.80;99.90
34877;DHT22;21086;44.780;17.194;2024-01-07T07:12:24;7.70;99.90
34877;DHT22;21086;44.780;17.194;2024-01-07T07:14:52;7.80;99.90
34877;DHT22;21086;44.780;17.194;2024-01-07T07:17:19;7.60;99.90
34877;DHT22;21086;44.780;17.194;2024-01-07T07:19:46;7.70;99.90
34877;DHT22;21086;44.780;17.194;2024-01-07T07:22:13;7.60;99.90
34877;DHT22;21086;44.780;17.194;2024-01-07T07:24:43;7.60;99.90
34877;DHT22;21086;44.780;17.194;2024-01-07T07:27:10;7.60;99.90
34877;DHT22;21086;44.780;17.194;2024-01-07T07:29:37;7.60;99.90
34877;DHT22;21086;44.780;17.194;2024-01-07T07:32:04;7.60;99.90
34877;DHT22;21086;44.780;17.194;2024-01-07T07:34:31;7.60;99.90
34877;DHT22;21086;44.780;17.194;2024-01-07T07:36:58;7.70;99.90
34877;DHT22;21086;44.780;17.194;2024-01-07T07:39:25;7.70;99.90
34877;DHT22;21086;44.780;17.194;2024-01-07T07:41:53;7.80;99.90
34877;DHT22;21086;44.780;17.194;2024-01-07T07:44:20;8.00;99.90
34877;DHT22;21086;44.780;17.194;2024-01-07T07:49:29;8.00;99.90
34877;DHT22;21086;44.780;17.194;2024-01-07T07:51:57;8.10;99.90
34877;DHT22;21086;44.780;17.194;2024-01-07T07:54:24;8.20;99.90
34877;DHT22;21086;44.780;17.194;2024-01-07T07:56:51;8.10;99.90
34877;DHT22;21086;44.780;17.194;2024-01-07T07:59:18;8.10;99.90
34877;DHT22;21086;44.780;17.194;2024-01-07T08:01:45;8.20;99.90
34877;DHT22;21086;44.780;17.194;2024-01-07T08:04:13;6.70;99.90
34877;DHT22;21086;44.780;17.194;2024-01-07T08:06:40;7.00;99.90
34877;DHT22;21086;44.780;17.194;2024-01-07T08:09:09;8.20;99.90
34877;DHT22;21086;44.780;17.194;2024-01-07T08:11:37;8.00;99.90
34877;DHT22;21086;44.780;17.194;2024-01-07T08:14:06;7.80;99.90
34877;DHT22;21086;44.780;17.194;2024-01-07T08:16:33;7.70;99.90
34877;DHT22;21086;44.780;17.194;2024-01-07T08:19:00;7.60;99.90
34877;DHT22;21086;44.780;17.194;2024-01-07T08:21:27;7.70;99.90
34877;DHT22;21086;44.780;17.194;2024-01-07T08:23:54;7.70;99.90
34877;DHT22;21086;44.780;17.194;2024-01-07T08:26:22;7.60;99.90
34877;DHT22;21086;44.780;17.194;2024-01-07T08:28:49;7.60;99.90
34877;DHT22;21086;44.780;17.194;2024-01-07T08:31:17;7.50;99.90
34877;DHT22;21086;44.780;17.194;2024-01-07T08:33:44;7.50;99.90
34877;DHT22;21086;44.780;17.194;2024-01-07T08:36:11;7.50;99.90
34877;DHT22;21086;44.780;17.194;2024-01-07T08:38:38;7.40;99.90
34877;DHT22;21086;44.780;17.194;2024-01-07T08:41:05;7.40;99.90
34877;DHT22;21086;44.780;17.194;2024-01-07T08:46:07;7.50;99.90
34877;DHT22;21086;44.780;17.194;2024-01-07T08:48:34;7.20;99.90
34877;DHT22;21086;44.780;17.194;2024-01-07T08:51:01;7.20;99.90
34877;DHT22;21086;44.780;17.194;2024-01-07T08:53:30;7.20;99.90
34877;DHT22;21086;44.780;17.194;2024-01-07T08:55:57;7.30;99.90
34877;DHT22;21086;44.780;17.194;2024-01-07T08:58:24;7.50;99.90
34877;DHT22;21086;44.780;17.194;2024-01-07T09:00:52;7.60;99.90
34877;DHT22;21086;44.780;17.194;2024-01-07T09:03:19;7.60;99.90
34877;DHT22;21086;44.780;17.194;2024-01-07T09:05:47;7.60;99.90
34877;DHT22;21086;44.780;17.194;2024-01-07T09:08:14;7.70;99.90
34877;DHT22;21086;44.780;17.194;2024-01-07T09:10:41;7.80;99.90
34877;DHT22;21086;44.780;17.194;2024-01-07T09:13:08;7.90;99.90
34877;DHT22;21086;44.780;17.194;2024-01-07T09:15:35;8.00;99.90
34877;DHT22;21086;44.780;17.194;2024-01-07T09:18:02;8.00;99.90
34877;DHT22;21086;44.780;17.194;2024-01-07T09:20:30;8.10;99.90
34877;DHT22;21086;44.780;17.194;2024-01-07T09:22:57;8.00;99.90
34877;DHT22;21086;44.780;17.194;2024-01-07T09:25:24;8.00;99.90
34877;DHT22;21086;44.780;17.194;2024-01-07T09:27:51;7.90;99.90
34877;DHT22;21086;44.780;17.194;2024-01-07T09:30:18;7.70;99.90
34877;DHT22;21086;44.780;17.194;2024-01-07T09:32:45;7.70;99.90
34877;DHT22;21086;44.780;17.194;2024-01-07T09:35:12;7.70;99.90
34877;DHT22;21086;44.780;17.194;2024-01-07T09:37:39;7.60;99.90
34877;DHT22;21086;44.780;17.194;2024-01-07T09:40:06;7.60;99.90
34877;DHT22;21086;44.780;17.194;2024-01-07T09:42:34;7.40;99.90
34877;DHT22;21086;44.780;17.194;2024-01-07T09:45:04;7.30;99.90
34877;DHT22;21086;44.780;17.194;2024-01-07T09:47:32;7.10;99.90
34877;DHT22;21086;44.780;17.194;2024-01-07T09:49:59;7.30;99.90
34877;DHT22;21086;44.780;17.194;2024-01-07T09:52:26;7.40;99.90
34877;DHT22;21086;44.780;17.194;2024-01-07T09:54:58;7.40;99.90
34877;DHT22;21086;44.780;17.194;2024-01-07T09:57:28;7.40;99.90
34877;DHT22;21086;44.780;17.194;2024-01-07T09:59:55;7.40;99.90
34877;DHT22;21086;44.780;17.194;2024-01-07T10:02:22;7.40;99.90
34877;DHT22;21086;44.780;17.194;2024-01-07T10:04:50;7.40;99.90
34877;DHT22;21086;44.780;17.194;2024-01-07T10:07:17;7.10;99.90
34877;DHT22;21086;44.780;17.194;2024-01-07T10:09:45;6.90;99.90
34877;DHT22;21086;44.780;17.194;2024-01-07T10:12:12;6.80;99.90
34877;DHT22;21086;44.780;17.194;2024-01-07T10:14:40;6.70;99.90
34877;DHT22;21086;44.780;17.194;2024-01-07T10:17:17;6.60;99.90
34877;DHT22;21086;44.780;17.194;2024-01-07T10:22:49;6.60;99.90
34877;DHT22;21086;44.780;17.194;2024-01-07T10:25:16;6.50;99.90
34877;DHT22;21086;44.780;17.194;2024-01-07T10:27:43;6.50;99.90
34877;DHT22;21086;44.780;17.194;2024-01-07T10:30:11;6.40;99.90
34877;DHT22;21086;44.780;17.194;2024-01-07T10:32:42;6.30;99.90
34877;DHT22;21086;44.780;17.194;2024-01-07T10:35:12;6.30;99.90
34877;DHT22;21086;44.780;17.194;2024-01-07T10:37:44;6.30;99.90
34877;DHT22;21086;44.780;17.194;2024-01-07T10:40:13;6.30;99.90
34877;DHT22;21086;44.780;17.194;2024-01-07T10:42:43;6.30;99.90
34877;DHT22;21086;44.780;17.194;2024-01-07T10:45:11;6.30;99.90
34877;DHT22;21086;44.780;17.194;2024-01-07T10:47:40;6.30;99.90
34877;DHT22;21086;44.780;17.194;2024-01-07T10:50:11;6.20;99.90
34877;DHT22;21086;44.780;17.194;2024-01-07T10:52:40;6.10;99.90
34877;DHT22;21086;44.780;17.194;2024-01-07T10:55:09;6.20;99.90
34877;DHT22;21086;44.780;17.194;2024-01-07T10:57:43;6.30;99.90
34877;DHT22;21086;44.780;17.194;2024-01-07T11:00:13;6.20;99.90
34877;DHT22;21086;44.780;17.194;2024-01-07T11:05:59;6.10;99.90
34877;DHT22;21086;44.780;17.194;2024-01-07T11:08:54;6.00;99.90
34877;DHT22;21086;44.780;17.194;2024-01-07T11:11:26;5.90;99.90
34877;DHT22;21086;44.780;17.194;2024-01-07T11:13:54;5.80;99.90
34877;DHT22;21086;44.780;17.194;2024-01-07T11:16:42;5.80;99.90
34877;DHT22;21086;44.780;17.194;2024-01-07T11:19:09;5.70;99.90
34877;DHT22;21086;44.780;17.194;2024-01-07T11:21:36;5.70;99.90
34877;DHT22;21086;44.780;17.194;2024-01-07T11:24:03;5.70;99.90
34877;DHT22;21086;44.780;17.194;2024-01-07T11:26:31;5.80;99.90
34877;DHT22;21086;44.780;17.194;2024-01-07T11:29:00;5.80;99.90
34877;DHT22;21086;44.780;17.194;2024-01-07T11:34:10;5.60;99.90
34877;DHT22;21086;44.780;17.194;2024-01-07T11:36:38;5.60;99.90
34877;DHT22;21086;44.780;17.194;2024-01-07T11:39:05;5.60;99.90
34877;DHT22;21086;44.780;17.194;2024-01-07T11:41:37;5.50;99.90
34877;DHT22;21086;44.780;17.194;2024-01-07T11:44:08;5.50;99.90
34877;DHT22;21086;44.780;17.194;2024-01-07T11:46:38;5.50;99.90
34877;DHT22;21086;44.780;17.194;2024-01-07T11:49:05;5.60;99.90
34877;DHT22;21086;44.780;17.194;2024-01-07T11:51:32;5.70;99.90
34877;DHT22;21086;44.780;17.194;2024-01-07T11:54:00;5.70;99.90
34877;DHT22;21086;44.780;17.194;2024-01-07T11:56:28;5.60;99.90
34877;DHT22;21086;44.780;17.194;2024-01-07T11:58:55;5.50;99.90
34877;DHT22;21086;44.780;17.194;2024-01-07T12:01:26;5.60;99.90
34877;DHT22;21086;44.780;17.194;2024-01-07T12:03:54;5.70;99.90
34877;DHT22;21086;44.780;17.194;2024-01-07T12:06:22;5.70;99.90
34877;DHT22;21086;44.780;17.194;2024-01-07T12:08:49;5.40;99.90
34877;DHT22;21086;44.780;17.194;2024-01-07T12:11:16;5.50;99.90
34877;DHT22;21086;44.780;17.194;2024-01-07T12:13:43;5.40;99.90
34877;DHT22;21086;44.780;17.194;2024-01-07T12:16:11;5.40;99.90
34877;DHT22;21086;44.780;17.194;2024-01-07T12:18:42;5.40;99.90
34877;DHT22;21086;44.780;17.194;2024-01-07T12:21:09;5.40;99.90
34877;DHT22;21086;44.780;17.194;2024-01-07T12:23:37;5.40;99.90
34877;DHT22;21086;44.780;17.194;2024-01-07T12:26:10;5.30;99.90
34877;DHT22;21086;44.780;17.194;2024-01-07T12:28:38;5.40;99.90
34877;DHT22;21086;44.780;17.194;2024-01-07T12:31:05;5.30;99.90
34877;DHT22;21086;44.780;17.194;2024-01-07T12:33:33;5.30;99.90
34877;DHT22;21086;44.780;17.194;2024-01-07T12:36:01;5.20;99.90
34877;DHT22;21086;44.780;17.194;2024-01-07T12:38:28;5.20;99.90
34877;DHT22;21086;44.780;17.194;2024-01-07T12:40:56;5.10;99.90
34877;DHT22;21086;44.780;17.194;2024-01-07T12:43:23;5.00;99.90
34877;DHT22;21086;44.780;17.194;2024-01-07T12:45:51;5.10;99.90
34877;DHT22;21086;44.780;17.194;2024-01-07T12:48:18;5.00;99.90
34877;DHT22;21086;44.780;17.194;2024-01-07T12:50:45;4.90;99.90
34877;DHT22;21086;44.780;17.194;2024-01-07T12:53:12;4.90;99.90
34877;DHT22;21086;44.780;17.194;2024-01-07T12:55:40;4.80;99.90
34877;DHT22;21086;44.780;17.194;2024-01-07T12:58:07;4.80;99.90
34877;DHT22;21086;44.780;17.194;2024-01-07T13:00:34;4.90;99.90
34877;DHT22;21086;44.780;17.194;2024-01-07T13:03:02;4.90;99.90
34877;DHT22;21086;44.780;17.194;2024-01-07T13:05:31;4.90;99.90
34877;DHT22;21086;44.780;17.194;2024-01-07T13:07:58;4.80;99.90
34877;DHT22;21086;44.780;17.194;2024-01-07T13:10:25;4.80;99.90
34877;DHT22;21086;44.780;17.194;2024-01-07T13:12:52;4.80;99.90
34877;DHT22;21086;44.780;17.194;2024-01-07T13:15:30;4.90;99.90
34877;DHT22;21086;44.780;17.194;2024-01-07T13:17:58;4.80;99.90
34877;DHT22;21086;44.780;17.194;2024-01-07T13:20:25;4.90;99.90
34877;DHT22;21086;44.780;17.194;2024-01-07T13:22:52;4.90;99.90
34877;DHT22;21086;44.780;17.194;2024-01-07T13:25:19;4.80;99.90
34877;DHT22;21086;44.780;17.194;2024-01-07T13:27:46;4.80;99.90
34877;DHT22;21086;44.780;17.194;2024-01-07T13:30:13;4.70;99.90
34877;DHT22;21086;44.780;17.194;2024-01-07T13:32:40;4.70;99.90
34877;DHT22;21086;44.780;17.194;2024-01-07T13:35:08;4.60;99.90
34877;DHT22;21086;44.780;17.194;2024-01-07T13:37:37;4.50;99.90
34877;DHT22;21086;44.780;17.194;2024-01-07T13:40:05;4.70;99.90
34877;DHT22;21086;44.780;17.194;2024-01-07T13:42:32;4.80;99.90
34877;DHT22;21086;44.780;17.194;2024-01-07T13:45:00;4.80;99.90
34877;DHT22;21086;44.780;17.194;2024-01-07T13:47:27;4.70;99.90
34877;DHT22;21086;44.780;17.194;2024-01-07T13:49:54;4.70;99.90
34877;DHT22;21086;44.780;17.194;2024-01-07T13:52:21;4.60;99.90
34877;DHT22;21086;44.780;17.194;2024-01-07T13:54:49;4.60;99.90
34877;DHT22;21086;44.780;17.194;2024-01-07T13:57:17;4.60;99.90
34877;DHT22;21086;44.780;17.194;2024-01-07T13:59:44;4.50;99.90
34877;DHT22;21086;44.780;17.194;2024-01-07T14:02:11;4.50;99.90
34877;DHT22;21086;44.780;17.194;2024-01-07T14:04:39;4.50;99.90
34877;DHT22;21086;44.780;17.194;2024-01-07T14:07:06;4.50;99.90
34877;DHT22;21086;44.780;17.194;2024-01-07T14:09:33;4.50;99.90
34877;DHT22;21086;44.780;17.194;2024-01-07T14:12:03;4.40;99.90
34877;DHT22;21086;44.780;17.194;2024-01-07T14:14:30;4.40;99.90
34877;DHT22;21086;44.780;17.194;2024-01-07T14:16:57;4.40;99.90
34877;DHT22;21086;44.780;17.194;2024-01-07T14:19:24;4.40;99.90
34877;DHT22;21086;44.780;17.194;2024-01-07T14:21:51;4.20;99.90
34877;DHT22;21086;44.780;17.194;2024-01-07T14:24:19;4.30;99.90
34877;DHT22;21086;44.780;17.194;2024-01-07T14:26:46;4.30;99.90
34877;DHT22;21086;44.780;17.194;2024-01-07T14:29:13;4.10;99.90
34877;DHT22;21086;44.780;17.194;2024-01-07T14:31:45;4.10;99.90
34877;DHT22;21086;44.780;17.194;2024-01-07T14:34:13;1.50;99.90
34877;DHT22;21086;44.780;17.194;2024-01-07T14:36:41;4.10;99.90
34877;DHT22;21086;44.780;17.194;2024-01-07T14:39:11;4.10;99.90
34877;DHT22;21086;44.780;17.194;2024-01-07T14:41:40;4.00;99.90
34877;DHT22;21086;44.780;17.194;2024-01-07T14:44:08;4.10;99.90
34877;DHT22;21086;44.780;17.194;2024-01-07T14:46:39;4.20;99.90
34877;DHT22;21086;44.780;17.194;2024-01-07T14:49:06;4.30;99.90
34877;DHT22;21086;44.780;17.194;2024-01-07T14:51:34;4.30;99.90
34877;DHT22;21086;44.780;17.194;2024-01-07T14:54:02;4.20;99.90
34877;DHT22;21086;44.780;17.194;2024-01-07T14:56:29;4.20;99.90
34877;DHT22;21086;44.780;17.194;2024-01-07T14:58:56;4.10;99.90
34877;DHT22;21086;44.780;17.194;2024-01-07T15:01:23;4.10;99.90
34877;DHT22;21086;44.780;17.194;2024-01-07T15:03:51;4.20;99.90
34877;DHT22;21086;44.780;17.194;2024-01-07T15:06:18;4.10;99.90
34877;DHT22;21086;44.780;17.194;2024-01-07T15:08:45;4.10;99.90
34877;DHT22;21086;44.780;17.194;2024-01-07T15:11:14;4.20;99.90
34877;DHT22;21086;44.780;17.194;2024-01-07T15:13:42;4.10;99.90
34877;DHT22;21086;44.780;17.194;2024-01-07T15:16:10;4.00;99.90
34877;DHT22;21086;44.780;17.194;2024-01-07T15:18:37;4.00;99.90
34877;DHT22;21086;44.780;17.194;2024-01-07T15:21:05;3.90;99.90
34877;DHT22;21086;44.780;17.194;2024-01-07T15:23:32;3.80;99.90
34877;DHT22;21086;44.780;17.194;2024-01-07T15:25:59;3.80;99.90
34877;DHT22;21086;44.780;17.194;2024-01-07T15:28:26;3.70;99.90
34877;DHT22;21086;44.780;17.194;2024-01-07T15:30:53;3.70;99.90
34877;DHT22;21086;44.780;17.194;2024-01-07T15:33:20;3.50;99.90
34877;DHT22;21086;44.780;17.194;2024-01-07T15:35:48;3.50;99.90
34877;DHT22;21086;44.780;17.194;2024-01-07T15:38:15;3.50;99.90
34877;DHT22;21086;44.780;17.194;2024-01-07T15:40:42;3.40;99.90
34877;DHT22;21086;44.780;17.194;2024-01-07T15:43:09;3.50;99.90
34877;DHT22;21086;44.780;17.194;2024-01-07T15:45:39;3.50;99.90
34877;DHT22;21086;44.780;17.194;2024-01-07T15:48:07;3.30;99.90
34877;DHT22;21086;44.780;17.194;2024-01-07T15:50:34;3.20;99.90
34877;DHT22;21086;44.780;17.194;2024-01-07T15:53:01;3.30;99.90
34877;DHT22;21086;44.780;17.194;2024-01-07T15:55:34;3.30;99.90
34877;DHT22;21086;44.780;17.194;2024-01-07T15:58:01;3.30;99.90
34877;DHT22;21086;44.780;17.194;2024-01-07T16:00:29;3.40;99.90
34877;DHT22;21086;44.780;17.194;2024-01-07T16:02:56;3.20;99.90
34877;DHT22;21086;44.780;17.194;2024-01-07T16:05:25;3.20;99.90
34877;DHT22;21086;44.780;17.194;2024-01-07T16:07:52;3.20;99.90
34877;DHT22;21086;44.780;17.194;2024-01-07T16:10:19;3.10;99.90